Crystal Falls, MI

4:56 AM CDT on July 14, 2014 (GMT -0500)
Ford (KIMT) Elev 1181 ft | 45.82 °N, 88.11 °W | Change Station

Current weather conditions updated 1 hour ago

Overcast
Overcast
56 °F
Feels Like 56 °F
N
0
Wind Variable Wind from North

Today is forecast to be Much Cooler than yesterday. Thunderstorms.

Today
High -- | Low -- °F
--% Chance of Precip.
Yesterday
High -- | Low -- °F
Precip. -- in
5:16 AM 8:41 PM
Waning Gibbous, 94% visible
Pressure 29.81 in
Visibility 10.0 miles
Clouds Overcast 10000 ft
Dew Point 49 °F
Humidity 77%
Rainfall 0.00 in
Snow Depth Not available.
UV 0 out of 12
Pollen 4.10 out of 12
Air Quality Not available.
Flu Activity Sporadic
METAR KIMT 140854Z AUTO 00000KT 10SM OVC100 13/09 A2981 RMK AO2 SLP093 T01330094 56006

More Conditions Fewer Conditions

Pressure 29.81 in
Visibility 10.0 miles
Clouds Overcast 10000 ft
Dew Point 49 °F
Humidity 77%
Rainfall 0.00 in
Snow Depth Not available.
UV 0 out of 12
Pollen 4.10 out of 12
Air Quality Not available.
Flu Activity Sporadic
METAR KIMT 140854Z AUTO 00000KT 10SM OVC100 13/09 A2981 RMK AO2 SLP093 T01330094 56006

More Conditions Fewer Conditions

10-Day Weather Forecast

Almanac

Astronomy

Jul. 14, 2014 Rise Set
Actual Time 5:16 AM CDT 8:41 PM CDT
Civil Twilight 4:38 AM CDT 9:19 PM CDT
Nautical Twilight 3:49 AM CDT 10:07 PM CDT
Astronomical Twilight 2:46 AM CDT 11:10 PM CDT
Moon 9:57 PM CDT 8:09 AM CDT
Length of Visible Light 16h 40m
Length of Day
15h 25m
Tomorrow will be 1m 43s shorter.
Waning Gibbous, 94% of the Moon is Illuminated
Today
Waning Gibbous
Jul 18
Last Quarter
Jul 26
New
Aug 3
First Quarter
Aug 10
Full

Today's Extremes

State Highs State Lows

Community

WunderPhotos

Upload Photos

1,733,585 photos uploaded!

Nearby

Snow Depth

Station Depth Elevation
No new snow has been reported.

Earthquake Activity

City Distance Mag. Time & Date
No recent earthquake activity has been reported nearby.
Minimum magnitude displayed is 2.5.

Coastal Water Temperatures

Place Temperature
No Stations Reporting

Nearby Weather Stations

Station Location Temp. Dew Point Humidity Wind Precip. Elev Updated Type
RAWS RANDVILLE MI, Sagola, MI 52 °F 51 °F 97% North  at  0 mph 0.00 in / hr 1254 ft 4:13 AM CDT MADIS
Spread Eagle Skies, Florence, WI 53.1 °F 52 °F 98% ESE  at  0.0 mph 0.00 in / hr 1224 ft 4:56 AM CDT Rapid Fire
MesoWest Republic ESS , Republic, MI 52 °F 51 °F 99% North  at  0 mph 0.00 in / hr 1443 ft 4:35 AM EDT MADIS

Show More Stations Show Fewer Stations